createdAt,value
2022-12-27T00:00:45.595Z,59.63
2022-12-27T00:02:47.202Z,59.51
2022-12-27T00:04:48.828Z,59.26
2022-12-27T00:06:50.499Z,58.99
2022-12-27T00:08:52.714Z,59.34
2022-12-27T00:10:54.278Z,59.27
2022-12-27T00:12:56.508Z,59.44
2022-12-27T00:14:57.945Z,59.19
2022-12-27T00:16:59.493Z,58.74
2022-12-27T00:19:01.994Z,58.46
2022-12-27T00:21:04.548Z,58.54
2022-12-27T00:23:06.741Z,58.43
2022-12-27T00:25:09.143Z,58.20
2022-12-27T00:27:10.838Z,58.27
2022-12-27T00:29:12.480Z,58.11
2022-12-27T00:31:15.016Z,57.95
2022-12-27T00:33:16.582Z,57.72
2022-12-27T00:35:18.205Z,58.14
2022-12-27T00:37:19.682Z,57.86
2022-12-27T00:39:21.279Z,57.96
2022-12-27T00:41:23.009Z,57.83
2022-12-27T00:43:24.649Z,57.89
2022-12-27T00:45:26.150Z,57.90
2022-12-27T00:47:27.663Z,57.76
2022-12-27T00:49:29.242Z,58.05
2022-12-27T00:51:30.815Z,58.01
2022-12-27T00:53:33.724Z,58.05
2022-12-27T00:55:35.750Z,57.77
2022-12-27T00:57:37.308Z,58.08
2022-12-27T00:59:38.761Z,57.96
2022-12-27T01:01:40.954Z,57.59
2022-12-27T01:03:43.490Z,57.47
2022-12-27T01:05:45.055Z,58.15
2022-12-27T01:07:46.588Z,58.10
2022-12-27T01:09:48.151Z,57.79
2022-12-27T01:11:49.735Z,58.01
2022-12-27T01:13:51.351Z,57.94
2022-12-27T01:15:52.901Z,58.16
2022-12-27T01:17:54.437Z,57.58
2022-12-27T01:19:56.166Z,58.19
2022-12-27T01:21:57.816Z,58.31
2022-12-27T01:23:59.345Z,57.86
2022-12-27T01:26:06.514Z,58.24
2022-12-27T01:28:09.146Z,57.76
2022-12-27T01:30:11.261Z,58.11
2022-12-27T01:32:12.867Z,58.17
2022-12-27T01:34:14.409Z,57.97
2022-12-27T01:36:21.907Z,57.83
2022-12-27T01:38:23.353Z,57.92
2022-12-27T01:40:25.375Z,58.11
2022-12-27T01:42:46.218Z,57.66
2022-12-27T01:44:56.397Z,57.84
2022-12-27T01:46:58.119Z,57.96
2022-12-27T01:48:59.661Z,57.67
2022-12-27T01:51:05.042Z,57.47
2022-12-27T01:53:24.771Z,57.62
2022-12-27T01:55:48.622Z,57.27
2022-12-27T01:57:53.480Z,57.75
2022-12-27T01:59:55.869Z,57.95
2022-12-27T02:01:58.315Z,57.88
2022-12-27T02:04:05.169Z,57.74
2022-12-27T02:06:09.691Z,57.56
2022-12-27T02:08:27.068Z,57.65
2022-12-27T02:10:29.427Z,57.45
2022-12-27T02:12:31.649Z,57.63
2022-12-27T02:14:45.228Z,57.20
2022-12-27T02:16:47.362Z,57.49
2022-12-27T02:18:49.245Z,57.67
2022-12-27T02:21:15.919Z,57.15
2022-12-27T02:24:04.332Z,57.39
2022-12-27T02:26:33.845Z,56.98
2022-12-27T02:29:06.253Z,56.84
2022-12-27T02:31:19.518Z,57.02
2022-12-27T02:33:27.513Z,57.20
2022-12-27T02:35:35.990Z,57.44
2022-12-27T02:37:44.482Z,57.10
2022-12-27T02:39:48.926Z,57.37
2022-12-27T02:42:10.775Z,57.08
2022-12-27T02:44:36.984Z,56.99
2022-12-27T02:46:57.266Z,57.19
2022-12-27T02:49:17.684Z,57.37
2022-12-27T02:52:05.293Z,56.80
2022-12-27T02:54:37.570Z,57.07
2022-12-27T02:57:07.604Z,57.00
2022-12-27T02:59:59.944Z,56.93
2022-12-27T03:02:33.619Z,56.94
2022-12-27T03:05:02.715Z,57.00
2022-12-27T03:07:37.114Z,56.88
2022-12-27T03:10:07.722Z,57.07
2022-12-27T03:12:56.156Z,56.85
2022-12-27T03:15:21.358Z,57.10
2022-12-27T03:17:34.145Z,57.14
2022-12-27T03:20:04.177Z,57.05
2022-12-27T03:22:27.536Z,57.08
2022-12-27T03:24:54.145Z,56.89
2022-12-27T03:26:58.451Z,57.05
2022-12-27T03:29:21.444Z,57.02
2022-12-27T03:31:46.223Z,57.02
2022-12-27T03:33:50.180Z,57.26
2022-12-27T03:36:23.803Z,56.73
2022-12-27T03:38:25.882Z,57.12
2022-12-27T03:41:09.623Z,56.84
2022-12-27T03:43:15.416Z,56.84
2022-12-27T03:45:20.809Z,56.91
2022-12-27T03:47:47.375Z,56.87
2022-12-27T03:50:02.943Z,56.77
2022-12-27T03:52:08.287Z,57.02
2022-12-27T03:54:18.827Z,56.93
2022-12-27T03:56:20.832Z,57.07
2022-12-27T03:58:22.446Z,57.15
2022-12-27T04:00:23.995Z,56.87
2022-12-27T04:02:25.740Z,57.04
2022-12-27T04:04:27.343Z,57.25
2022-12-27T04:06:28.907Z,57.24
2022-12-27T04:08:49.199Z,56.92
2022-12-27T04:11:09.114Z,57.15
2022-12-27T04:13:29.111Z,57.22
2022-12-27T04:15:49.939Z,57.45
2022-12-27T04:18:10.202Z,57.24
2022-12-27T04:20:30.594Z,57.29
2022-12-27T04:22:50.865Z,57.31
2022-12-27T04:25:10.618Z,57.66
2022-12-27T04:27:30.592Z,57.45
2022-12-27T04:29:50.343Z,57.38
2022-12-27T04:32:10.254Z,57.46
2022-12-27T04:34:30.264Z,57.32
2022-12-27T04:36:31.755Z,57.66
2022-12-27T04:38:33.395Z,57.45
2022-12-27T04:40:53.933Z,57.48
2022-12-27T04:43:14.343Z,57.46
2022-12-27T04:45:34.610Z,57.34
2022-12-27T04:47:55.134Z,57.39
2022-12-27T04:50:15.348Z,58.02
2022-12-27T04:52:37.679Z,57.71
2022-12-27T04:54:57.614Z,57.32
2022-12-27T04:56:59.090Z,57.31
2022-12-27T04:59:19.437Z,57.21
2022-12-27T05:01:39.960Z,57.59
2022-12-27T05:03:43.662Z,57.73
2022-12-27T05:05:46.735Z,57.78
2022-12-27T05:08:07.326Z,57.86
2022-12-27T05:10:28.067Z,57.67
2022-12-27T05:12:48.699Z,57.91
2022-12-27T05:14:50.264Z,57.66
2022-12-27T05:16:51.727Z,57.88
2022-12-27T05:18:53.714Z,57.98
2022-12-27T05:20:55.329Z,58.05
2022-12-27T05:23:15.720Z,58.01
2022-12-27T05:25:35.270Z,58.04
2022-12-27T05:27:36.784Z,57.68
2022-12-27T05:29:38.298Z,58.07
2022-12-27T05:31:40.122Z,57.78
2022-12-27T05:33:41.748Z,57.77
2022-12-27T05:35:43.969Z,58.01
2022-12-27T05:37:50.073Z,57.92
2022-12-27T05:39:54.711Z,58.19
2022-12-27T05:41:56.274Z,58.16
2022-12-27T05:44:02.126Z,58.01
2022-12-27T05:46:17.360Z,57.72
2022-12-27T05:48:19.130Z,57.95
2022-12-27T05:50:21.152Z,58.25
2022-12-27T05:52:25.378Z,57.97
2022-12-27T05:54:26.955Z,57.99
2022-12-27T05:56:29.266Z,57.91
2022-12-27T05:58:31.618Z,57.64
2022-12-27T06:00:33.149Z,58.06
2022-12-27T06:02:34.765Z,58.05
2022-12-27T06:04:36.390Z,57.73
2022-12-27T06:06:37.963Z,57.94
2022-12-27T06:08:40.254Z,57.58
2022-12-27T06:10:41.828Z,58.00
2022-12-27T06:12:43.247Z,57.87
2022-12-27T06:14:44.801Z,57.76
2022-12-27T06:16:49.603Z,57.79
2022-12-27T06:18:51.293Z,58.06
2022-12-27T06:20:52.827Z,58.16
2022-12-27T06:22:54.240Z,58.39
2022-12-27T06:24:55.787Z,58.48
2022-12-27T06:26:57.285Z,58.36
2022-12-27T06:28:58.937Z,58.30
2022-12-27T06:31:01.674Z,57.87
2022-12-27T06:33:03.203Z,58.01
2022-12-27T06:35:05.201Z,58.07
2022-12-27T06:37:06.700Z,57.78
2022-12-27T06:39:08.295Z,57.90
2022-12-27T06:41:13.374Z,58.27
2022-12-27T06:43:14.899Z,58.15
2022-12-27T06:45:16.508Z,58.20
2022-12-27T06:47:18.089Z,57.99
2022-12-27T06:49:19.796Z,57.96
2022-12-27T06:51:22.023Z,58.08
2022-12-27T06:53:23.863Z,58.35
2022-12-27T06:55:25.588Z,58.46
2022-12-27T06:57:27.211Z,58.50
2022-12-27T06:59:29.120Z,58.37
2022-12-27T07:01:30.986Z,58.20
2022-12-27T07:03:32.541Z,57.86
2022-12-27T07:05:38.325Z,58.47
2022-12-27T07:07:40.087Z,58.03
2022-12-27T07:09:41.834Z,57.97
2022-12-27T07:11:43.343Z,58.38
2022-12-27T07:13:48.358Z,57.97
2022-12-27T07:15:49.927Z,58.24
2022-12-27T07:17:51.512Z,58.15
2022-12-27T07:19:53.358Z,58.29
2022-12-27T07:21:55.195Z,58.50
2022-12-27T07:23:57.366Z,58.60
2022-12-27T07:26:10.926Z,58.67
2022-12-27T07:28:12.483Z,58.72
2022-12-27T07:30:14.095Z,58.70
2022-12-27T07:32:15.663Z,58.80
2022-12-27T07:34:17.192Z,58.41
2022-12-27T07:36:21.667Z,58.51
2022-12-27T07:38:23.138Z,58.73
2022-12-27T07:40:25.217Z,58.83
2022-12-27T07:42:28.707Z,58.68
2022-12-27T07:44:30.166Z,58.67
2022-12-27T07:46:32.945Z,58.79
2022-12-27T07:48:35.612Z,58.89
2022-12-27T07:50:37.378Z,58.70
2022-12-27T07:52:38.916Z,58.91
2022-12-27T07:54:41.415Z,58.82
2022-12-27T07:56:43.041Z,59.11
2022-12-27T07:58:46.980Z,59.27
2022-12-27T08:00:50.733Z,59.40
2022-12-27T08:02:52.330Z,59.25
2022-12-27T08:04:54.052Z,59.25
2022-12-27T08:07:17.102Z,59.33
2022-12-27T08:09:36.902Z,59.05
2022-12-27T08:11:39.625Z,59.58
2022-12-27T08:13:41.140Z,59.28
2022-12-27T08:15:43.609Z,59.27
2022-12-27T08:17:45.222Z,59.30
2022-12-27T08:19:47.398Z,59.30
2022-12-27T08:21:48.951Z,59.13
2022-12-27T08:23:52.346Z,59.30
2022-12-27T08:25:55.107Z,59.34
2022-12-27T08:28:07.759Z,59.53
2022-12-27T08:30:09.923Z,59.31
2022-12-27T08:32:11.656Z,59.51
2022-12-27T08:34:13.368Z,59.25
2022-12-27T08:36:52.954Z,59.24
2022-12-27T08:38:36.544Z,59.24
2022-12-27T08:40:43.422Z,59.67
2022-12-27T08:42:45.023Z,59.45
2022-12-27T08:44:46.588Z,59.42
2022-12-27T08:46:48.089Z,59.40
2022-12-27T08:48:50.761Z,59.33
2022-12-27T08:50:52.402Z,59.16
2022-12-27T08:52:58.029Z,59.64
2022-12-27T08:54:59.516Z,59.36
2022-12-27T08:57:01.025Z,58.96
2022-12-27T08:59:02.488Z,59.35
2022-12-27T09:01:11.134Z,59.41
2022-12-27T09:03:12.807Z,59.57
2022-12-27T09:05:14.504Z,59.27
2022-12-27T09:07:16.096Z,59.54
2022-12-27T09:09:17.835Z,59.61
2022-12-27T09:11:22.753Z,59.87
2022-12-27T09:13:24.278Z,59.76
2022-12-27T09:15:25.911Z,59.87
2022-12-27T09:17:49.911Z,60.03
2022-12-27T09:19:51.476Z,60.02
2022-12-27T09:21:52.990Z,60.18
2022-12-27T09:23:54.823Z,60.14
2022-12-27T09:25:58.890Z,60.09
2022-12-27T09:28:00.448Z,59.88
2022-12-27T09:30:03.543Z,59.96
2022-12-27T09:32:05.418Z,59.88
2022-12-27T09:34:06.959Z,60.03
2022-12-27T09:36:26.396Z,60.29
2022-12-27T09:38:27.954Z,60.20
2022-12-27T09:40:29.511Z,60.16
2022-12-27T09:42:56.208Z,60.30
2022-12-27T09:45:15.553Z,60.41
2022-12-27T09:47:33.041Z,60.35
2022-12-27T09:49:41.441Z,60.44
2022-12-27T09:52:14.719Z,60.22
2022-12-27T09:54:25.449Z,60.34
2022-12-27T09:56:47.408Z,60.31
2022-12-27T09:58:55.326Z,60.37
2022-12-27T10:00:56.971Z,60.52
2022-12-27T10:02:59.406Z,60.51
2022-12-27T10:05:20.740Z,60.05
2022-12-27T10:07:50.381Z,60.35
2022-12-27T10:09:51.845Z,60.39
2022-12-27T10:12:05.896Z,60.03
2022-12-27T10:14:33.785Z,60.01
2022-12-27T10:17:15.769Z,60.08
2022-12-27T10:19:26.162Z,60.21
2022-12-27T10:21:34.378Z,59.97
2022-12-27T10:23:38.669Z,59.95
2022-12-27T10:25:41.307Z,59.98
2022-12-27T10:27:43.386Z,59.93
2022-12-27T10:29:45.355Z,60.06
2022-12-27T10:31:46.906Z,59.75
2022-12-27T10:33:50.508Z,59.94
2022-12-27T10:35:52.237Z,59.90
2022-12-27T10:37:54.059Z,59.67
2022-12-27T10:40:08.603Z,59.83
2022-12-27T10:42:38.428Z,59.91
2022-12-27T10:44:40.126Z,59.68
2022-12-27T10:46:44.589Z,59.66
2022-12-27T10:51:23.384Z,59.43
2022-12-27T10:53:36.509Z,59.67
2022-12-27T10:55:39.165Z,59.28
2022-12-27T10:57:40.638Z,59.35
2022-12-27T10:59:42.103Z,59.47
2022-12-27T11:02:05.023Z,59.32
2022-12-27T11:04:15.971Z,59.65
2022-12-27T11:06:24.727Z,59.62
2022-12-27T11:08:26.425Z,59.38
2022-12-27T11:10:33.251Z,59.27
2022-12-27T11:12:36.215Z,59.53
2022-12-27T11:14:37.761Z,59.12
2022-12-27T11:16:40.996Z,59.48
2022-12-27T11:18:52.722Z,59.29
2022-12-27T11:20:57.171Z,59.52
2022-12-27T11:23:11.451Z,59.11
2022-12-27T11:25:15.327Z,59.28
2022-12-27T11:27:24.439Z,59.44
2022-12-27T11:29:28.218Z,59.38
2022-12-27T11:31:36.533Z,59.23
2022-12-27T11:33:47.321Z,59.32
2022-12-27T11:35:52.354Z,59.31
2022-12-27T11:37:53.968Z,59.40
2022-12-27T11:40:20.416Z,59.22
2022-12-27T11:42:38.683Z,59.29
2022-12-27T11:44:49.908Z,59.01
2022-12-27T11:47:31.514Z,59.52
2022-12-27T11:49:40.230Z,59.28
2022-12-27T11:52:06.585Z,59.72
2022-12-27T11:54:40.309Z,59.40
2022-12-27T11:57:23.286Z,59.34
2022-12-27T11:59:41.077Z,59.97
2022-12-27T12:02:13.560Z,59.33
2022-12-27T12:04:24.538Z,59.39
2022-12-27T12:06:48.299Z,59.72
2022-12-27T12:09:23.279Z,59.34
2022-12-27T12:11:57.165Z,59.56
2022-12-27T12:14:33.636Z,59.52
2022-12-27T12:17:09.279Z,59.64
2022-12-27T12:19:30.695Z,59.69
2022-12-27T12:22:24.457Z,59.86
2022-12-27T12:24:37.304Z,59.63
2022-12-27T12:27:02.125Z,59.71
2022-12-27T12:29:28.636Z,59.67
2022-12-27T12:32:10.594Z,59.84
2022-12-27T12:34:36.133Z,59.81
2022-12-27T12:37:05.739Z,59.54
2022-12-27T12:39:32.924Z,59.24
2022-12-27T12:41:51.918Z,59.22
2022-12-27T12:44:28.347Z,59.37
2022-12-27T12:46:54.817Z,59.26
2022-12-27T12:49:17.890Z,58.86
2022-12-27T12:51:35.419Z,58.88
2022-12-27T12:53:36.830Z,59.23
2022-12-27T12:55:51.522Z,59.21
2022-12-27T12:58:23.886Z,59.07
2022-12-27T13:00:42.598Z,59.16
2022-12-27T13:03:16.366Z,58.88
2022-12-27T13:05:38.401Z,58.78
2022-12-27T13:08:04.699Z,58.95
2022-12-27T13:10:37.091Z,58.73
2022-12-27T13:12:53.063Z,58.87
2022-12-27T13:15:13.329Z,58.88
2022-12-27T13:17:24.295Z,58.81
2022-12-27T13:19:50.068Z,58.38
2022-12-27T13:22:34.238Z,58.64
2022-12-27T13:24:59.581Z,58.74
2022-12-27T13:27:15.573Z,58.28
2022-12-27T13:29:38.747Z,58.38
2022-12-27T13:32:02.104Z,58.14
2022-12-27T13:34:20.024Z,58.36
2022-12-27T13:36:33.577Z,58.18
2022-12-27T13:38:50.646Z,58.33
2022-12-27T13:41:10.658Z,58.15
2022-12-27T13:43:51.030Z,58.10
2022-12-27T13:46:12.619Z,58.13
2022-12-27T13:49:06.751Z,57.74
2022-12-27T13:51:11.111Z,57.70
2022-12-27T13:53:29.842Z,57.95
2022-12-27T13:55:52.130Z,57.39
2022-12-27T13:58:13.788Z,57.53
2022-12-27T14:00:22.943Z,57.54
2022-12-27T14:03:01.820Z,57.45
2022-12-27T14:05:15.120Z,57.64
2022-12-27T14:07:53.836Z,57.19
2022-12-27T14:10:18.540Z,57.27
2022-12-27T14:12:59.556Z,57.48
2022-12-27T14:15:06.651Z,57.13
2022-12-27T14:17:30.873Z,57.10
2022-12-27T14:19:57.429Z,57.41
2022-12-27T14:22:16.473Z,57.31
2022-12-27T14:24:43.389Z,57.11
2022-12-27T14:27:30.842Z,57.54
2022-12-27T14:29:59.621Z,56.97
2022-12-27T14:32:13.013Z,57.29
2022-12-27T14:34:59.889Z,56.68
2022-12-27T14:37:19.618Z,56.64
2022-12-27T14:39:42.573Z,57.31
2022-12-27T14:42:08.825Z,57.33
2022-12-27T14:44:37.964Z,56.95
2022-12-27T14:47:08.352Z,57.29
2022-12-27T14:49:26.301Z,57.37
2022-12-27T14:52:12.136Z,57.09
2022-12-27T14:54:53.854Z,56.93
2022-12-27T14:57:15.282Z,57.49
2022-12-27T14:59:35.440Z,57.20
2022-12-27T15:01:58.154Z,57.08
2022-12-27T15:04:27.382Z,56.83
2022-12-27T15:06:53.715Z,57.00
2022-12-27T15:09:19.896Z,56.93
2022-12-27T15:11:51.683Z,56.70
2022-12-27T15:14:07.066Z,56.75
2022-12-27T15:16:40.913Z,56.56
2022-12-27T15:18:49.255Z,56.82
2022-12-27T15:21:19.695Z,56.67
2022-12-27T15:23:35.057Z,56.74
2022-12-27T15:25:45.903Z,56.13
2022-12-27T15:28:00.605Z,56.69
2022-12-27T15:30:38.765Z,56.33
2022-12-27T15:32:58.269Z,56.61
2022-12-27T15:35:23.322Z,56.47
2022-12-27T15:37:52.733Z,56.41
2022-12-27T15:39:54.404Z,56.55
2022-12-27T15:42:04.787Z,56.61
2022-12-27T15:44:14.377Z,56.42
2022-12-27T15:46:39.620Z,56.12
2022-12-27T15:49:05.965Z,56.12
2022-12-27T15:51:29.031Z,56.47
2022-12-27T15:54:08.239Z,56.46
2022-12-27T15:56:26.204Z,56.52
2022-12-27T15:58:27.973Z,56.13
2022-12-27T16:00:34.245Z,56.48
2022-12-27T16:02:48.012Z,56.31
2022-12-27T16:05:14.441Z,56.07
2022-12-27T16:07:39.789Z,56.13
2022-12-27T16:09:41.385Z,56.35
2022-12-27T16:12:00.500Z,56.22
2022-12-27T16:14:24.345Z,56.07
2022-12-27T16:16:26.007Z,56.34
2022-12-27T16:18:46.281Z,56.13
2022-12-27T16:20:56.819Z,56.18
2022-12-27T16:23:02.167Z,56.34
2022-12-27T16:25:28.618Z,55.88
2022-12-27T16:27:35.107Z,56.48
2022-12-27T16:29:43.739Z,56.12
2022-12-27T16:31:49.494Z,56.45
2022-12-27T16:33:58.989Z,56.32
2022-12-27T16:36:13.527Z,55.94
2022-12-27T16:38:22.421Z,56.22
2022-12-27T16:40:38.088Z,56.35
2022-12-27T16:42:48.835Z,56.17
2022-12-27T16:45:02.983Z,56.39
2022-12-27T16:47:26.075Z,56.04
2022-12-27T16:49:39.335Z,56.16
2022-12-27T16:52:25.313Z,56.11
2022-12-27T16:54:44.988Z,55.98
2022-12-27T16:56:48.319Z,56.26
2022-12-27T16:58:50.237Z,56.33
2022-12-27T17:00:59.713Z,56.20
2022-12-27T17:03:21.477Z,56.10
2022-12-27T17:05:35.454Z,55.85
2022-12-27T17:07:57.308Z,56.24
2022-12-27T17:10:27.658Z,56.35
2022-12-27T17:12:29.277Z,56.11
2022-12-27T17:14:37.049Z,56.56
2022-12-27T17:16:55.303Z,56.37
2022-12-27T17:19:04.079Z,56.26
2022-12-27T17:21:23.314Z,56.46
2022-12-27T17:23:28.465Z,56.52
2022-12-27T17:25:41.723Z,56.36
2022-12-27T17:28:10.443Z,56.55
2022-12-27T17:30:20.625Z,56.71
2022-12-27T17:32:55.882Z,56.49
2022-12-27T17:35:14.331Z,56.55
2022-12-27T17:37:28.135Z,56.34
2022-12-27T17:40:02.123Z,56.61
2022-12-27T17:42:38.076Z,56.46
2022-12-27T17:45:31.402Z,56.53
2022-12-27T17:48:00.836Z,56.34
2022-12-27T17:50:06.176Z,56.86
2022-12-27T17:52:34.510Z,57.00
2022-12-27T17:54:57.719Z,56.60
2022-12-27T17:57:19.439Z,56.84
2022-12-27T17:59:25.789Z,56.88
2022-12-27T18:01:29.886Z,56.71
2022-12-27T18:03:39.476Z,56.94
2022-12-27T18:05:43.720Z,56.59
2022-12-27T18:07:45.449Z,56.95
2022-12-27T18:09:49.697Z,56.74
2022-12-27T18:11:51.352Z,56.57
2022-12-27T18:13:56.612Z,56.57
2022-12-27T18:15:58.669Z,56.74
2022-12-27T18:18:07.035Z,56.66
2022-12-27T18:20:26.639Z,56.32
2022-12-27T18:22:28.505Z,56.84
2022-12-27T18:24:32.718Z,56.72
2022-12-27T18:26:40.875Z,56.86
2022-12-27T18:28:43.455Z,56.58
2022-12-27T18:30:55.564Z,56.93
2022-12-27T18:32:57.921Z,56.89
2022-12-27T18:35:02.838Z,56.68
2022-12-27T18:37:11.261Z,56.45
2022-12-27T18:39:29.667Z,56.23
2022-12-27T18:41:40.494Z,56.45
2022-12-27T18:43:44.875Z,56.35
2022-12-27T18:45:46.543Z,56.30
2022-12-27T18:47:50.965Z,56.20
2022-12-27T18:50:03.856Z,56.17
2022-12-27T18:52:14.275Z,56.15
2022-12-27T18:54:28.003Z,56.37
2022-12-27T18:56:34.912Z,56.29
2022-12-27T18:58:36.474Z,56.37
2022-12-27T19:00:49.693Z,56.23
2022-12-27T19:02:53.150Z,56.30
2022-12-27T19:05:24.091Z,56.42
2022-12-27T19:07:25.904Z,56.51
2022-12-27T19:09:35.174Z,56.29
2022-12-27T19:11:38.253Z,56.54
2022-12-27T19:13:49.024Z,56.57
2022-12-27T19:15:51.801Z,56.55
2022-12-27T19:17:58.167Z,56.50
2022-12-27T19:20:06.622Z,56.51
2022-12-27T19:22:46.625Z,56.53
2022-12-27T19:24:48.172Z,56.51
2022-12-27T19:26:51.305Z,56.50
2022-12-27T19:29:08.965Z,56.51
2022-12-27T19:31:21.930Z,56.33
2022-12-27T19:33:29.965Z,56.16
2022-12-27T19:35:31.634Z,56.14
2022-12-27T19:37:33.612Z,56.14
2022-12-27T19:39:37.872Z,56.26
2022-12-27T19:45:05.554Z,56.22
2022-12-27T19:47:12.327Z,56.18
2022-12-27T19:51:37.284Z,56.44
2022-12-27T19:53:45.288Z,56.39
2022-12-27T19:55:48.379Z,56.37
2022-12-27T19:57:49.969Z,56.45
2022-12-27T19:59:51.441Z,56.21
2022-12-27T20:01:53.590Z,56.49
2022-12-27T20:03:55.419Z,56.70
2022-12-27T20:06:11.747Z,57.32
2022-12-27T20:08:37.924Z,56.55
2022-12-27T20:10:39.540Z,56.52
2022-12-27T20:13:28.102Z,56.38
2022-12-27T20:15:31.188Z,56.38
2022-12-27T20:17:32.817Z,56.52
2022-12-27T20:19:34.697Z,56.54
2022-12-27T20:21:36.293Z,56.32
2022-12-27T20:23:38.036Z,56.50
2022-12-27T20:25:43.120Z,56.45
2022-12-27T20:27:44.843Z,56.59
2022-12-27T20:29:46.487Z,56.80
2022-12-27T20:31:50.104Z,56.75
2022-12-27T20:33:55.716Z,56.69
2022-12-27T20:36:23.625Z,56.49
2022-12-27T20:38:26.142Z,56.38
2022-12-27T20:40:28.022Z,56.34
2022-12-27T20:42:29.687Z,56.22
2022-12-27T20:44:31.343Z,56.35
2022-12-27T20:46:32.836Z,56.70
2022-12-27T20:48:38.070Z,56.27
2022-12-27T20:50:40.832Z,56.22
2022-12-27T20:52:42.303Z,56.02
2022-12-27T20:54:43.894Z,56.31
2022-12-27T20:56:45.503Z,56.09
2022-12-27T20:58:47.175Z,56.12
2022-12-27T21:00:48.680Z,55.86
2022-12-27T21:02:50.391Z,56.08
2022-12-27T21:04:51.866Z,56.20
2022-12-27T21:06:53.468Z,55.90
2022-12-27T21:08:57.770Z,55.90
2022-12-27T21:11:06.175Z,55.75
2022-12-27T21:13:07.822Z,55.85
2022-12-27T21:15:10.691Z,55.94
2022-12-27T21:17:12.516Z,55.74
2022-12-27T21:19:14.168Z,56.14
2022-12-27T21:21:19.815Z,56.33
2022-12-27T21:23:21.499Z,56.16
2022-12-27T21:25:23.041Z,56.19
2022-12-27T21:27:24.621Z,56.15
2022-12-27T21:29:26.152Z,56.17
2022-12-27T21:31:28.685Z,55.92
2022-12-27T21:33:30.813Z,56.33
2022-12-27T21:35:32.318Z,55.79
2022-12-27T21:37:33.786Z,56.04
2022-12-27T21:39:35.560Z,56.26
2022-12-27T21:41:39.365Z,55.60
2022-12-27T21:43:41.476Z,55.66
2022-12-27T21:45:42.929Z,55.92
2022-12-27T21:47:44.338Z,56.11
2022-12-27T21:49:45.908Z,56.00
2022-12-27T21:51:47.553Z,55.69
2022-12-27T21:53:49.210Z,55.94
2022-12-27T21:55:58.340Z,55.74
2022-12-27T21:57:59.708Z,55.60
2022-12-27T22:00:01.294Z,56.13
2022-12-27T22:02:02.870Z,55.74
2022-12-27T22:04:04.747Z,55.61
2022-12-27T22:06:16.947Z,56.06
2022-12-27T22:08:18.589Z,56.01
2022-12-27T22:10:20.229Z,55.93
2022-12-27T22:12:21.776Z,56.00
2022-12-27T22:14:25.776Z,55.60
2022-12-27T22:16:31.606Z,55.95
2022-12-27T22:18:34.982Z,56.29
2022-12-27T22:20:37.789Z,55.92
2022-12-27T22:22:42.137Z,56.06
2022-12-27T22:24:43.699Z,56.04
2022-12-27T22:26:45.333Z,56.17
2022-12-27T22:28:47.082Z,56.13
2022-12-27T22:30:51.811Z,56.38
2022-12-27T22:32:54.199Z,56.47
2022-12-27T22:34:55.995Z,56.58
2022-12-27T22:36:57.444Z,56.05
2022-12-27T22:38:59.673Z,55.99
2022-12-27T22:41:16.468Z,56.23
2022-12-27T22:43:17.952Z,56.35
2022-12-27T22:45:19.561Z,56.50
2022-12-27T22:47:28.689Z,56.08
2022-12-27T22:49:30.388Z,56.11
2022-12-27T22:51:34.503Z,56.35
2022-12-27T22:53:36.275Z,56.27
2022-12-27T22:55:41.146Z,56.42
2022-12-27T22:57:42.742Z,56.15
2022-12-27T22:59:44.349Z,56.46
2022-12-27T23:01:46.212Z,56.01
2022-12-27T23:03:48.217Z,56.27
2022-12-27T23:06:00.182Z,56.57
2022-12-27T23:08:06.126Z,56.47
2022-12-27T23:10:09.585Z,56.51
2022-12-27T23:12:11.924Z,56.42
2022-12-27T23:14:15.978Z,56.27
2022-12-27T23:16:17.597Z,56.40
2022-12-27T23:18:19.201Z,56.27
2022-12-27T23:20:20.750Z,56.70
2022-12-27T23:22:22.318Z,56.25
2022-12-27T23:24:23.855Z,56.26
2022-12-27T23:26:25.985Z,56.40
2022-12-27T23:28:27.704Z,56.83
2022-12-27T23:30:29.330Z,56.45
2022-12-27T23:32:30.859Z,56.37
2022-12-27T23:34:32.385Z,56.48
2022-12-27T23:36:34.315Z,56.63
2022-12-27T23:38:35.886Z,56.35
2022-12-27T23:40:37.437Z,56.84
2022-12-27T23:42:39.037Z,56.88
2022-12-27T23:44:40.661Z,56.45
2022-12-27T23:46:42.434Z,56.81
2022-12-27T23:48:49.608Z,56.08
2022-12-27T23:50:51.312Z,56.83
2022-12-27T23:52:52.940Z,57.06
2022-12-27T23:54:54.419Z,56.62
2022-12-27T23:56:56.151Z,56.76
2022-12-27T23:58:59.687Z,57.06
